createdAt,value
2022-08-07T16:50:28.057Z,1.00
2022-08-07T16:51:13.555Z,4.00
2022-08-07T16:52:50.817Z,1.50
2022-08-07T16:54:01.693Z,1.50
2022-08-07T16:54:19.282Z,2.00
2022-08-07T16:55:22.810Z,1.75
2022-08-07T16:56:27.122Z,1.50
2022-08-07T16:58:02.345Z,2.00
2022-08-07T16:59:02.339Z,1.25
2022-08-07T16:59:46.055Z,1.75
2022-08-07T17:00:44.063Z,2.50
2022-08-07T17:01:47.151Z,1.50
2022-08-07T17:02:52.314Z,1.00
2022-08-07T17:03:59.588Z,1.00
2022-08-07T17:05:00.568Z,1.25
2022-08-07T17:06:29.611Z,1.00
2022-08-07T17:07:09.586Z,2.00
2022-08-07T17:08:13.923Z,2.50
2022-08-07T17:10:06.161Z,1.50
2022-08-07T17:10:32.846Z,2.00
2022-08-07T17:11:27.135Z,0.50
2022-08-07T17:12:33.585Z,1.00
2022-08-07T17:13:41.504Z,1.00
2022-08-07T17:14:40.361Z,1.00
2022-08-07T17:15:50.462Z,1.00
2022-08-07T17:16:55.855Z,1.00
2022-08-07T17:17:54.329Z,1.00
2022-08-07T17:18:58.825Z,1.25
2022-08-07T17:20:13.973Z,1.00
2022-08-07T17:21:19.046Z,1.00
2022-08-07T17:22:11.540Z,1.00
2022-08-07T17:23:14.932Z,1.00
2022-08-07T17:24:23.595Z,1.00
2022-08-07T17:25:47.586Z,1.50
2022-08-07T17:26:30.678Z,1.50
2022-08-07T17:27:32.581Z,1.00
2022-08-07T17:28:36.050Z,0.50
2022-08-07T17:30:14.677Z,1.25
2022-08-07T17:30:57.743Z,1.00
2022-08-07T17:32:02.741Z,1.25
2022-08-07T17:32:54.378Z,2.00
2022-08-07T17:34:18.172Z,1.00
2022-08-07T17:35:51.508Z,1.00
2022-08-07T17:36:12.013Z,1.00
2022-08-07T17:38:06.828Z,0.50
2022-08-07T17:38:33.725Z,1.50
2022-08-07T17:39:19.948Z,2.00
2022-08-07T17:40:30.443Z,1.50
2022-08-07T17:42:04.422Z,2.00
2022-08-07T17:42:32.589Z,1.25
2022-08-07T17:44:01.906Z,1.00
2022-08-07T17:44:49.527Z,1.00
2022-08-07T17:45:45.922Z,1.25
2022-08-07T17:46:52.518Z,1.25
2022-08-07T17:47:54.533Z,1.50
2022-08-07T17:48:58.422Z,1.00
2022-08-07T17:50:01.819Z,1.00
2022-08-07T17:51:06.239Z,0.75
2022-08-07T17:52:10.529Z,1.00
2022-08-07T17:53:56.141Z,1.00
2022-08-07T17:54:29.726Z,1.00
2022-08-07T17:56:01.026Z,1.50
2022-08-07T17:56:29.703Z,1.50
2022-08-07T17:57:55.956Z,1.50
2022-08-07T17:58:36.384Z,2.50
2022-08-07T17:59:39.878Z,2.50
2022-08-07T18:00:49.106Z,1.50
2022-08-07T18:01:48.552Z,1.25
2022-08-07T18:02:53.853Z,1.50
2022-08-07T18:04:06.818Z,2.00
2022-08-07T18:05:01.119Z,2.50
2022-08-07T18:06:06.679Z,1.50
2022-08-07T18:07:20.234Z,1.00
2022-08-07T18:08:24.188Z,1.00
2022-08-07T18:09:19.468Z,1.00
2022-08-07T18:10:32.468Z,1.00
2022-08-07T18:12:16.092Z,1.50
2022-08-07T18:12:32.514Z,2.50
2022-08-07T18:13:40.496Z,2.50
2022-08-07T18:14:44.906Z,1.50
2022-08-07T18:15:44.800Z,1.00
2022-08-07T18:16:58.320Z,1.00
2022-08-07T18:18:46.694Z,1.00
2022-08-07T18:21:04.548Z,1.00
2022-08-07T18:21:07.604Z,2.00
2022-08-07T18:21:37.383Z,1.00
2022-08-07T18:22:18.231Z,1.00
2022-08-07T18:23:42.273Z,1.00
2022-08-07T18:24:33.014Z,1.50
2022-08-07T18:25:40.146Z,1.50
2022-08-07T18:26:36.387Z,1.00
2022-08-07T18:27:40.699Z,1.50
2022-08-07T18:28:58.491Z,2.00
2022-08-07T18:30:07.566Z,1.75
2022-08-07T18:30:52.691Z,1.50
2022-08-07T18:31:55.884Z,1.00
2022-08-07T18:33:10.533Z,1.00
2022-08-07T18:34:03.572Z,1.50
2022-08-07T18:35:07.885Z,1.50
2022-08-07T18:36:11.687Z,1.00
2022-08-07T18:38:55.557Z,2.00
2022-08-07T18:38:57.158Z,1.00
2022-08-07T18:40:08.958Z,2.00
2022-08-07T18:40:42.572Z,1.50
2022-08-07T18:41:45.423Z,1.50
2022-08-07T18:42:37.985Z,4.00
2022-08-07T18:43:42.859Z,4.50
2022-08-07T18:45:39.999Z,2.25
2022-08-07T18:46:25.049Z,2.00
2022-08-07T18:46:58.319Z,2.00
2022-08-07T18:48:01.031Z,2.00
2022-08-07T18:50:32.459Z,1.50
2022-08-07T18:50:39.139Z,1.50
2022-08-07T18:51:14.984Z,1.25
2022-08-07T18:52:37.902Z,2.00
2022-08-07T18:53:21.955Z,1.00
2022-08-07T18:54:27.617Z,0.50
2022-08-07T18:55:40.999Z,1.00
2022-08-07T18:56:35.087Z,1.00
2022-08-07T18:57:39.391Z,1.00
2022-08-07T18:58:43.129Z,1.00
2022-08-07T18:59:58.641Z,1.00
2022-08-07T19:00:55.092Z,1.00
2022-08-07T19:02:19.257Z,0.75
2022-08-07T19:03:00.967Z,0.50
2022-08-07T19:04:03.964Z,0.50
2022-08-07T19:05:09.819Z,1.00
2022-08-07T19:06:16.297Z,1.00
2022-08-07T19:07:17.539Z,2.00
2022-08-07T19:08:21.435Z,1.50
2022-08-07T19:09:55.715Z,0.50
2022-08-07T19:10:31.796Z,1.00
2022-08-07T19:11:36.394Z,0.50
2022-08-07T19:12:38.872Z,1.00
2022-08-07T19:13:43.229Z,1.00
2022-08-07T19:14:51.170Z,1.00
2022-08-07T19:16:05.382Z,1.00
2022-08-07T19:17:04.726Z,1.50
2022-08-07T19:18:11.335Z,1.00
2022-08-07T19:19:06.890Z,1.00
2022-08-07T19:20:29.674Z,0.50
2022-08-07T19:21:44.990Z,0.00
2022-08-07T19:22:30.719Z,0.00
2022-08-07T19:23:57.309Z,0.25
2022-08-07T19:24:30.749Z,0.00
2022-08-07T19:26:23.883Z,1.00
2022-08-07T19:28:31.013Z,0.50
2022-08-07T19:28:57.546Z,0.00
2022-08-07T19:30:55.675Z,0.00
2022-08-07T19:31:05.816Z,0.00
2022-08-07T19:31:42.893Z,0.50
2022-08-07T19:32:18.833Z,0.50
2022-08-07T19:33:08.370Z,1.00
2022-08-07T19:34:08.938Z,1.00
2022-08-07T19:35:13.161Z,1.00
2022-08-07T19:36:16.553Z,1.00
2022-08-07T19:37:22.249Z,0.50
2022-08-07T19:38:25.246Z,0.50
2022-08-07T19:39:56.469Z,1.00
2022-08-07T19:40:34.822Z,1.50
2022-08-07T19:41:44.915Z,1.00
2022-08-07T19:42:43.053Z,1.00
2022-08-07T19:43:49.218Z,1.00
2022-08-07T19:44:51.023Z,1.00
2022-08-07T19:46:08.008Z,1.50
2022-08-07T19:46:58.752Z,1.00
2022-08-07T19:48:02.271Z,0.50
2022-08-07T19:49:05.590Z,1.00
2022-08-07T19:50:43.101Z,0.40
2022-08-07T19:51:19.467Z,0.25
2022-08-07T19:52:18.574Z,0.25
2022-08-07T19:54:29.705Z,1.00
2022-08-07T19:54:34.782Z,1.00
2022-08-07T19:55:56.966Z,1.25
2022-08-07T19:58:01.509Z,1.00
2022-08-07T19:58:01.976Z,1.00
2022-08-07T19:58:52.833Z,0.50
2022-08-07T19:59:48.438Z,0.00
2022-08-07T20:00:54.255Z,0.50
2022-08-07T20:01:57.420Z,1.00
2022-08-07T20:03:01.230Z,1.00
2022-08-07T20:04:05.235Z,1.00
2022-08-07T20:05:08.543Z,1.00
2022-08-07T20:06:15.462Z,1.00
2022-08-07T20:07:23.536Z,1.00
2022-08-07T20:08:20.850Z,0.50
2022-08-07T20:10:33.906Z,0.25
2022-08-07T20:10:36.867Z,0.50
2022-08-07T20:12:01.142Z,2.00
2022-08-07T20:12:38.351Z,1.00
2022-08-07T20:13:42.204Z,0.50
2022-08-07T20:14:54.155Z,1.00
2022-08-07T20:15:49.778Z,0.75
2022-08-07T20:16:54.334Z,1.00
2022-08-07T20:18:03.284Z,1.00
2022-08-07T20:19:02.409Z,1.00
2022-08-07T20:20:07.219Z,1.50
2022-08-07T20:21:14.309Z,0.75
2022-08-07T20:22:15.013Z,1.00
2022-08-07T20:23:32.958Z,1.00
2022-08-07T20:24:23.046Z,0.50
2022-08-07T20:25:26.401Z,1.00
2022-08-07T20:26:32.748Z,1.50
2022-08-07T20:27:47.426Z,2.00
2022-08-07T20:28:39.186Z,1.50
2022-08-07T20:29:48.827Z,1.50
2022-08-07T20:30:47.538Z,1.25
2022-08-07T20:31:51.741Z,1.00
2022-08-07T20:32:55.025Z,2.00
2022-08-07T20:33:59.539Z,1.50
2022-08-07T20:35:07.718Z,1.00
2022-08-07T20:36:07.839Z,1.50
2022-08-07T20:37:12.369Z,1.50
2022-08-07T20:38:16.549Z,1.00
2022-08-07T20:40:01.246Z,2.00
2022-08-07T20:40:33.054Z,2.00
2022-08-07T20:41:28.371Z,1.50
2022-08-07T20:42:32.784Z,0.50
2022-08-07T20:43:36.160Z,1.50
2022-08-07T20:44:40.479Z,2.00
2022-08-07T20:46:27.191Z,1.00
2022-08-07T20:47:05.626Z,1.00
2022-08-07T20:47:56.645Z,2.00
2022-08-07T20:49:57.852Z,2.00
2022-08-07T20:50:03.752Z,1.50
2022-08-07T20:51:09.741Z,1.25
2022-08-07T20:52:16.394Z,1.50
2022-08-07T20:53:16.263Z,1.00
2022-08-07T20:54:29.601Z,0.25
2022-08-07T20:55:25.682Z,1.50
2022-08-07T20:56:29.186Z,2.00
2022-08-07T20:57:32.602Z,1.00
2022-08-07T20:58:37.193Z,1.00
2022-08-07T21:00:07.624Z,1.00
2022-08-07T21:00:46.577Z,1.50
2022-08-07T21:01:55.124Z,2.00
2022-08-07T21:02:57.500Z,2.00
2022-08-07T21:04:19.545Z,2.00
2022-08-07T21:05:04.565Z,1.00
2022-08-07T21:06:21.829Z,1.50
2022-08-07T21:07:14.693Z,0.75
2022-08-07T21:08:17.307Z,1.50
2022-08-07T21:09:24.464Z,1.50
2022-08-07T21:10:31.291Z,2.00
2022-08-07T21:11:46.365Z,1.75
2022-08-07T21:12:34.634Z,2.00
2022-08-07T21:13:58.010Z,2.00
2022-08-07T21:14:48.492Z,2.00
2022-08-07T21:15:58.205Z,1.50
2022-08-07T21:16:56.948Z,1.25
2022-08-07T21:18:02.307Z,1.00
2022-08-07T21:19:00.891Z,4.50
2022-08-07T21:20:06.086Z,7.25
2022-08-07T21:21:09.712Z,4.50
2022-08-07T21:22:14.890Z,2.00
2022-08-07T21:23:18.569Z,2.50
2022-08-07T21:24:23.665Z,2.00
2022-08-07T21:25:29.068Z,6.50
2022-08-07T21:26:32.275Z,8.75
2022-08-07T21:27:40.044Z,2.00
2022-08-07T21:28:48.743Z,1.25
2022-08-07T21:29:52.070Z,2.00
2022-08-07T21:30:50.122Z,4.50
2022-08-07T21:32:47.010Z,4.00
2022-08-07T21:32:57.837Z,2.00
2022-08-07T21:34:02.152Z,2.00
2022-08-07T21:35:10.816Z,1.50
2022-08-07T21:36:11.869Z,1.00
2022-08-07T21:37:14.865Z,1.00
2022-08-07T21:38:19.257Z,1.00
2022-08-07T21:39:46.174Z,1.50
2022-08-07T21:40:28.119Z,1.50
2022-08-07T21:41:38.023Z,2.00
2022-08-07T21:42:47.150Z,1.50
2022-08-07T21:43:55.224Z,2.00
2022-08-07T21:44:50.961Z,1.50
2022-08-07T21:46:10.658Z,1.00
2022-08-07T21:46:57.416Z,1.00
2022-08-07T21:48:00.699Z,1.00
2022-08-07T21:49:04.899Z,1.00
2022-08-07T21:50:14.497Z,1.00
2022-08-07T21:51:19.797Z,1.50
2022-08-07T21:52:33.112Z,2.00
2022-08-07T21:53:23.792Z,0.50
2022-08-07T21:54:27.384Z,1.00
2022-08-07T21:55:31.059Z,1.50
2022-08-07T21:56:35.910Z,1.50
2022-08-07T21:57:44.736Z,1.50
2022-08-07T21:58:45.754Z,2.00
2022-08-07T22:00:04.073Z,1.75
2022-08-07T22:00:53.006Z,1.50
2022-08-07T22:02:07.123Z,1.50
2022-08-07T22:03:03.604Z,1.00
2022-08-07T22:04:05.930Z,1.00
2022-08-07T22:05:21.751Z,1.25
2022-08-07T22:06:30.059Z,2.00
2022-08-07T22:07:19.063Z,1.25
2022-08-07T22:08:24.758Z,1.25
2022-08-07T22:09:31.431Z,1.00
2022-08-07T22:10:35.286Z,0.50
2022-08-07T22:12:05.876Z,0.50
2022-08-07T22:12:44.802Z,0.50
2022-08-07T22:13:50.309Z,0.00
2022-08-07T22:14:59.786Z,0.50
2022-08-07T22:16:41.262Z,1.00
2022-08-07T22:17:04.091Z,1.00
2022-08-07T22:18:07.740Z,0.50
2022-08-07T22:19:11.368Z,1.50
2022-08-07T22:20:23.575Z,1.25
2022-08-07T22:21:21.630Z,1.25
2022-08-07T22:22:28.973Z,1.25
2022-08-07T22:23:31.979Z,1.50
2022-08-07T22:24:35.691Z,1.50
2022-08-07T22:25:40.289Z,1.00
2022-08-07T22:26:45.028Z,1.00
2022-08-07T22:28:29.575Z,1.00
2022-08-07T22:28:53.440Z,1.00
2022-08-07T22:29:57.272Z,1.25
2022-08-07T22:31:04.902Z,1.00
2022-08-07T22:32:06.766Z,1.00
2022-08-07T22:33:10.356Z,0.50
2022-08-07T22:34:13.857Z,1.00
2022-08-07T22:35:17.747Z,0.50
2022-08-07T22:36:21.940Z,0.50
2022-08-07T22:37:25.191Z,0.50
2022-08-07T22:38:29.131Z,1.00
2022-08-07T22:39:35.325Z,0.50
2022-08-07T22:40:37.041Z,0.00
2022-08-07T22:42:03.486Z,0.50
2022-08-07T22:42:45.025Z,1.75
2022-08-07T22:43:50.417Z,0.50
2022-08-07T22:44:58.814Z,1.00
2022-08-07T22:46:21.834Z,1.00
2022-08-07T22:47:08.972Z,1.00
2022-08-07T22:48:13.713Z,1.50
2022-08-07T22:49:13.438Z,2.00
2022-08-07T22:50:20.597Z,1.00
2022-08-07T22:51:22.249Z,1.00
2022-08-07T22:52:36.775Z,1.00
2022-08-07T22:54:07.830Z,1.00
2022-08-07T22:54:36.434Z,1.00
2022-08-07T22:55:43.987Z,1.00
2022-08-07T22:56:48.279Z,0.75
2022-08-07T22:57:52.223Z,1.50
2022-08-07T22:58:56.000Z,1.00
2022-08-07T22:59:59.688Z,1.00
2022-08-07T23:01:03.488Z,1.00
2022-08-07T23:02:08.111Z,0.50
2022-08-07T23:03:11.478Z,1.00
2022-08-07T23:04:16.380Z,2.50
2022-08-07T23:06:09.777Z,2.00
2022-08-07T23:06:24.780Z,1.50
2022-08-07T23:07:41.469Z,1.00
2022-08-07T23:08:33.758Z,1.00
2022-08-07T23:10:05.321Z,1.00
2022-08-07T23:10:42.647Z,0.50
2022-08-07T23:11:47.182Z,0.00
2022-08-07T23:12:51.089Z,0.50
2022-08-07T23:14:08.994Z,1.00
2022-08-07T23:15:00.414Z,1.00
2022-08-07T23:16:07.181Z,0.50
2022-08-07T23:17:12.656Z,0.00
2022-08-07T23:18:13.045Z,0.50
2022-08-07T23:19:16.220Z,1.50
2022-08-07T23:20:19.506Z,0.00
2022-08-07T23:21:23.087Z,0.50
2022-08-07T23:22:27.610Z,1.00
2022-08-07T23:24:05.233Z,0.50
2022-08-07T23:24:38.658Z,1.00
2022-08-07T23:25:41.669Z,0.50
2022-08-07T23:26:50.366Z,0.50
2022-08-07T23:28:20.628Z,1.00
2022-08-07T23:28:56.263Z,1.00
2022-08-07T23:30:37.934Z,1.00
2022-08-07T23:31:06.391Z,0.00
2022-08-07T23:34:20.774Z,0.25
2022-08-07T23:34:24.089Z,0.50
2022-08-07T23:34:34.162Z,0.50
2022-08-07T23:35:22.267Z,1.00
2022-08-07T23:36:29.080Z,0.50
2022-08-07T23:37:30.692Z,0.50
2022-08-07T23:38:42.358Z,1.00
2022-08-07T23:39:41.271Z,0.50
2022-08-07T23:40:43.102Z,0.50
2022-08-07T23:42:04.499Z,0.50
2022-08-07T23:42:54.051Z,0.50
2022-08-07T23:43:57.857Z,0.50
2022-08-07T23:45:01.656Z,1.00
2022-08-07T23:46:10.963Z,1.00
2022-08-07T23:47:09.769Z,1.00
2022-08-07T23:48:15.744Z,0.50
2022-08-07T23:49:17.966Z,1.50
2022-08-07T23:50:21.559Z,1.00
2022-08-07T23:52:57.983Z,0.50
2022-08-07T23:53:17.192Z,0.00
2022-08-07T23:53:49.461Z,0.25
2022-08-07T23:54:46.560Z,1.00
2022-08-07T23:55:46.963Z,1.00
2022-08-07T23:56:54.109Z,1.00
2022-08-07T23:57:52.749Z,0.50
2022-08-07T23:58:56.063Z,1.00
